Time,TemperatureF,DewpointF,PressureIn,WindDirection,WindDirectionDegrees,WindSpeedMPH,WindSpeedGustMPH,Humidity,HourlyPrecipIn,Conditions,Clouds,dailyrainin,SolarRadiationWatts/m^2,SoftwareType,DateUTC
2014-11-22 00:32:00,22.0,7.0,-100.00,South,179,4.0,5.0,51,0.00,,,0.01,0.000000,,2014-11-22 07:32:00,
2014-11-22 00:42:00,22.0,7.0,-100.00,South,179,4.0,5.0,51,0.00,,,0.01,0.000000,,2014-11-22 07:42:00,
2014-11-22 00:52:00,22.0,7.0,-100.00,South,179,4.0,5.0,51,0.00,,,0.01,0.000000,,2014-11-22 07:52:00,
2014-11-22 01:32:00,20.0,6.0,-100.00,South,176,6.0,8.0,55,0.00,,,0.01,0.000000,,2014-11-22 08:32:00,
2014-11-22 01:42:00,20.0,6.0,-100.00,South,176,6.0,8.0,55,0.00,,,0.01,0.000000,,2014-11-22 08:42:00,
2014-11-22 01:52:00,20.0,6.0,-100.00,South,176,6.0,8.0,55,0.00,,,0.01,0.000000,,2014-11-22 08:52:00,
2014-11-22 02:34:00,19.0,6.0,-100.00,South,172,7.0,10.0,57,0.00,,,0.01,0.000000,,2014-11-22 09:34:00,
2014-11-22 02:43:00,19.0,6.0,-100.00,South,172,7.0,10.0,57,0.00,,,0.01,0.000000,,2014-11-22 09:43:00,
2014-11-22 02:53:00,19.0,6.0,-100.00,South,172,7.0,10.0,57,0.00,,,0.01,0.000000,,2014-11-22 09:53:00,
2014-11-22 03:33:00,19.0,6.0,-100.00,South,173,5.0,9.0,57,0.00,,,0.01,0.000000,,2014-11-22 10:33:00,
2014-11-22 03:42:00,19.0,6.0,-100.00,South,173,5.0,9.0,57,0.00,,,0.01,0.000000,,2014-11-22 10:42:00,
2014-11-22 03:53:00,19.0,6.0,-100.00,South,173,5.0,9.0,57,0.00,,,0.01,0.000000,,2014-11-22 10:53:00,
2014-11-22 04:33:00,20.0,4.0,-100.00,SW,224,2.0,9.0,50,0.00,,,0.01,0.000000,,2014-11-22 11:33:00,
2014-11-22 04:42:00,20.0,4.0,-100.00,SW,224,2.0,9.0,50,0.00,,,0.01,0.000000,,2014-11-22 11:42:00,
2014-11-22 04:53:00,20.0,4.0,-100.00,SW,224,2.0,9.0,50,0.00,,,0.01,0.000000,,2014-11-22 11:53:00,
2014-11-22 05:32:00,24.0,4.0,-100.00,WNW,288,6.0,14.0,41,0.00,,,0.01,0.000000,,2014-11-22 12:32:00,
2014-11-22 05:43:00,24.0,4.0,-100.00,WNW,288,6.0,14.0,41,0.00,,,0.01,0.000000,,2014-11-22 12:43:00,
2014-11-22 05:52:00,24.0,4.0,-100.00,WNW,288,6.0,14.0,41,0.00,,,0.01,0.000000,,2014-11-22 12:52:00,
2014-11-22 06:32:00,24.0,3.0,-100.00,West,281,3.0,16.0,40,0.00,,,0.01,0.000000,,2014-11-22 13:32:00,
2014-11-22 06:42:00,24.0,3.0,-100.00,West,281,3.0,16.0,40,0.00,,,0.01,0.000000,,2014-11-22 13:42:00,
2014-11-22 06:52:00,24.0,3.0,-100.00,West,281,3.0,16.0,40,0.00,,,0.01,0.000000,,2014-11-22 13:52:00,
2014-11-22 07:32:00,24.0,5.0,-100.00,NNW,332,5.0,19.0,44,0.00,,,-99.99,1.000000,,2014-11-22 14:32:00,
2014-11-22 07:42:00,24.0,5.0,-100.00,NNW,332,5.0,19.0,44,0.00,,,-99.99,1.000000,,2014-11-22 14:42:00,
2014-11-22 07:52:00,24.0,5.0,-100.00,NNW,332,5.0,19.0,44,0.00,,,-99.99,1.000000,,2014-11-22 14:52:00,
2014-11-22 08:34:00,27.0,6.0,-100.00,NW,308,8.0,21.0,41,0.00,,,0.01,23.000000,,2014-11-22 15:34:00,
2014-11-22 08:43:00,27.0,6.0,-100.00,NW,308,8.0,21.0,41,0.00,,,0.01,23.000000,,2014-11-22 15:43:00,
2014-11-22 08:53:00,27.0,6.0,-100.00,NW,308,8.0,21.0,41,0.00,,,0.01,23.000000,,2014-11-22 15:53:00,
2014-11-22 08:54:00,29.0,5.0,-100.00,West,263,13.0,24.0,36,0.00,,,0.00,46.000000,,2014-11-22 15:54:00,
2014-11-22 09:33:00,29.0,5.0,-100.00,West,263,13.0,24.0,36,0.00,,,0.00,46.000000,,2014-11-22 16:33:00,
2014-11-22 09:43:00,29.0,5.0,-100.00,West,263,13.0,24.0,36,0.00,,,0.00,46.000000,,2014-11-22 16:43:00,
2014-11-22 10:32:00,33.0,8.0,-100.00,WSW,246,17.0,30.0,34,0.00,,,0.00,232.000000,,2014-11-22 17:32:00,
2014-11-22 10:43:00,33.0,8.0,-100.00,WSW,246,17.0,30.0,34,0.00,,,0.00,232.000000,,2014-11-22 17:43:00,
2014-11-22 10:52:00,33.0,8.0,-100.00,WSW,246,17.0,30.0,34,0.00,,,0.00,232.000000,,2014-11-22 17:52:00,
2014-11-22 11:32:00,38.0,9.0,-100.00,West,262,10.0,34.0,29,0.00,,,0.00,418.000000,,2014-11-22 18:32:00,
2014-11-22 11:44:00,38.0,9.0,-100.00,West,262,10.0,34.0,29,0.00,,,0.00,418.000000,,2014-11-22 18:44:00,
2014-11-22 11:53:00,38.0,9.0,-100.00,West,262,10.0,34.0,29,0.00,,,0.00,418.000000,,2014-11-22 18:53:00,
2014-11-22 12:32:00,41.0,9.0,-100.00,WNW,301,9.0,25.0,26,0.00,,,0.00,514.000000,,2014-11-22 19:32:00,
2014-11-22 12:42:00,41.0,9.0,-100.00,WNW,301,9.0,25.0,26,0.00,,,0.00,514.000000,,2014-11-22 19:42:00,
2014-11-22 12:52:00,41.0,9.0,-100.00,WNW,301,9.0,25.0,26,0.00,,,0.00,514.000000,,2014-11-22 19:52:00,
2014-11-22 13:32:00,45.0,11.0,-100.00,West,279,7.0,18.0,25,0.00,,,0.00,523.000000,,2014-11-22 20:32:00,
2014-11-22 13:42:00,45.0,11.0,-100.00,West,279,7.0,18.0,25,0.00,,,0.00,523.000000,,2014-11-22 20:42:00,
2014-11-22 13:52:00,45.0,11.0,-100.00,West,279,7.0,18.0,25,0.00,,,0.00,523.000000,,2014-11-22 20:52:00,
2014-11-22 13:54:00,40.0,9.0,-100.00,West,267,11.0,23.0,27,0.00,,,0.00,429.000000,,2014-11-22 20:54:00,
2014-11-22 14:33:00,40.0,9.0,-100.00,West,267,11.0,23.0,27,0.00,,,0.00,429.000000,,2014-11-22 21:33:00,
2014-11-22 14:44:00,40.0,9.0,-100.00,West,267,11.0,23.0,27,0.00,,,0.00,429.000000,,2014-11-22 21:44:00,
2014-11-22 15:34:00,38.0,11.0,-100.00,SW,225,10.0,23.0,32,0.00,,,0.00,219.000000,,2014-11-22 22:34:00,
2014-11-22 15:43:00,38.0,11.0,-100.00,SW,225,10.0,23.0,32,0.00,,,0.00,219.000000,,2014-11-22 22:43:00,
2014-11-22 15:53:00,38.0,11.0,-100.00,SW,225,10.0,23.0,32,0.00,,,0.00,219.000000,,2014-11-22 22:53:00,
2014-11-22 16:33:00,35.0,12.0,-100.00,SW,222,7.0,24.0,38,0.00,,,0.00,117.000000,,2014-11-22 23:33:00,
2014-11-22 16:42:00,35.0,12.0,-100.00,SW,222,7.0,24.0,38,0.00,,,0.00,117.000000,,2014-11-22 23:42:00,
2014-11-22 16:53:00,35.0,12.0,-100.00,SW,222,7.0,24.0,38,0.00,,,0.00,117.000000,,2014-11-22 23:53:00,
2014-11-22 17:32:00,30.0,17.0,-100.00,SSW,213,7.0,21.0,59,0.00,,,0.00,13.000000,,2014-11-23 00:32:00,
2014-11-22 17:42:00,30.0,17.0,-100.00,SSW,213,7.0,21.0,59,0.00,,,0.00,13.000000,,2014-11-23 00:42:00,
2014-11-22 17:52:00,30.0,17.0,-100.00,SSW,213,7.0,21.0,59,0.00,,,0.00,13.000000,,2014-11-23 00:52:00,
2014-11-22 18:32:00,28.0,18.0,-100.00,West,272,3.0,14.0,67,0.00,,,0.00,0.000000,,2014-11-23 01:32:00,
2014-11-22 18:43:00,28.0,18.0,-100.00,West,272,3.0,14.0,67,0.00,,,0.00,0.000000,,2014-11-23 01:43:00,
2014-11-22 18:52:00,28.0,18.0,-100.00,West,272,3.0,14.0,67,0.00,,,0.00,0.000000,,2014-11-23 01:52:00,
2014-11-22 19:32:00,28.0,18.0,-100.00,South,179,7.0,17.0,67,0.00,,,0.00,0.000000,,2014-11-23 02:32:00,